createdAt,value
2022-09-30T00:00:09.901Z,11.40
2022-09-30T00:05:33.191Z,11.30
2022-09-30T00:10:36.444Z,11.30
2022-09-30T00:15:41.310Z,11.30
2022-09-30T00:20:44.567Z,11.30
2022-09-30T00:25:48.195Z,11.10
2022-09-30T00:30:52.869Z,11.10
2022-09-30T00:35:56.240Z,10.90
2022-09-30T00:40:59.843Z,10.80
2022-09-30T00:46:04.750Z,10.70
2022-09-30T00:51:09.085Z,10.70
2022-09-30T00:56:14.910Z,10.80
2022-09-30T01:01:20.253Z,10.90
2022-09-30T01:06:25.079Z,10.90
2022-09-30T01:11:29.052Z,11.00
2022-09-30T01:16:49.113Z,11.00
2022-09-30T01:22:19.072Z,11.10
2022-09-30T01:27:43.364Z,11.10
2022-09-30T01:33:19.752Z,10.90
2022-09-30T01:38:29.491Z,10.90
2022-09-30T01:43:45.473Z,10.90
2022-09-30T01:48:59.643Z,10.80
2022-09-30T01:54:07.386Z,10.70
2022-09-30T01:59:15.881Z,10.80
2022-09-30T02:04:26.366Z,10.70
2022-09-30T02:09:33.735Z,10.60
2022-09-30T02:14:42.456Z,10.60
2022-09-30T02:19:51.849Z,10.60
2022-09-30T02:25:00.308Z,10.70
2022-09-30T02:30:04.959Z,10.70
2022-09-30T02:35:12.843Z,10.60
2022-09-30T02:40:21.355Z,10.40
2022-09-30T02:45:26.109Z,10.30
2022-09-30T02:50:35.190Z,10.40
2022-09-30T02:55:49.959Z,10.50
2022-09-30T03:00:55.239Z,10.50
2022-09-30T03:06:00.274Z,10.50
2022-09-30T03:11:04.836Z,10.70
2022-09-30T03:16:21.874Z,10.70
2022-09-30T03:21:39.312Z,10.80
2022-09-30T03:26:53.510Z,10.80
2022-09-30T03:32:09.636Z,10.80
2022-09-30T03:37:23.139Z,10.90
2022-09-30T03:42:30.727Z,10.90
2022-09-30T03:47:39.190Z,10.90
2022-09-30T03:52:44.346Z,10.80
2022-09-30T03:57:49.047Z,10.70
2022-09-30T04:02:57.075Z,10.80
2022-09-30T04:08:02.752Z,10.80
2022-09-30T04:13:06.041Z,10.90
2022-09-30T04:18:09.454Z,10.90
2022-09-30T04:23:14.088Z,11.00
2022-09-30T04:28:17.669Z,11.00
2022-09-30T04:33:21.044Z,10.90
2022-09-30T04:38:26.377Z,10.90
2022-09-30T04:43:30.029Z,11.00
2022-09-30T04:48:33.338Z,11.10
2022-09-30T04:53:37.979Z,11.10
2022-09-30T04:58:41.483Z,11.10
2022-09-30T05:03:45.971Z,11.10
2022-09-30T05:08:50.671Z,11.10
2022-09-30T05:13:54.000Z,11.20
2022-09-30T05:18:57.313Z,11.20
2022-09-30T05:24:02.670Z,11.20
2022-09-30T05:29:06.241Z,11.20
2022-09-30T05:34:09.981Z,11.10
2022-09-30T05:39:14.940Z,11.20
2022-09-30T05:44:19.290Z,11.30
2022-09-30T05:49:22.739Z,11.30
2022-09-30T05:54:27.801Z,11.40
2022-09-30T05:59:31.107Z,11.50
2022-09-30T06:04:34.779Z,11.50
2022-09-30T06:09:39.676Z,11.60
2022-09-30T06:14:42.996Z,11.60
2022-09-30T06:19:46.311Z,11.50
2022-09-30T06:24:55.004Z,11.50
2022-09-30T06:29:58.667Z,11.50
2022-09-30T06:35:03.781Z,11.60
2022-09-30T06:40:09.921Z,11.50
2022-09-30T06:45:25.670Z,11.60
2022-09-30T06:50:34.491Z,11.70
2022-09-30T06:55:40.704Z,11.70
2022-09-30T07:00:44.047Z,11.80
2022-09-30T07:05:47.497Z,11.70
2022-09-30T07:10:52.828Z,11.70
2022-09-30T07:15:57.113Z,11.80
2022-09-30T07:21:00.444Z,11.80
2022-09-30T07:26:07.876Z,11.80
2022-09-30T07:31:31.986Z,11.80
2022-09-30T07:36:38.089Z,11.90
2022-09-30T07:41:45.195Z,11.90
2022-09-30T07:46:48.678Z,12.00
2022-09-30T07:51:53.957Z,12.00
2022-09-30T07:57:15.160Z,12.10
2022-09-30T08:02:20.177Z,12.10
2022-09-30T08:07:24.066Z,12.10
2022-09-30T08:12:28.792Z,12.10
2022-09-30T08:17:32.020Z,12.10
2022-09-30T08:22:35.414Z,12.20
2022-09-30T08:27:40.310Z,12.30
2022-09-30T08:32:43.818Z,12.40
2022-09-30T08:37:47.155Z,12.40
2022-09-30T08:43:14.787Z,12.50
2022-09-30T08:48:29.893Z,12.60
2022-09-30T08:53:37.779Z,12.70
2022-09-30T08:58:46.388Z,12.70
2022-09-30T09:03:49.833Z,12.80
2022-09-30T09:09:26.075Z,12.90
2022-09-30T09:14:46.908Z,13.10
2022-09-30T09:19:57.354Z,13.20
2022-09-30T09:25:03.586Z,13.30
2022-09-30T09:30:11.794Z,13.40
2022-09-30T09:35:17.532Z,13.50
2022-09-30T09:40:34.318Z,13.60
2022-09-30T09:45:49.281Z,13.80
2022-09-30T09:51:02.206Z,13.80
2022-09-30T09:56:18.165Z,14.00
2022-09-30T10:01:33.157Z,14.00
2022-09-30T10:06:48.252Z,14.00
2022-09-30T10:11:51.819Z,14.10
2022-09-30T10:17:00.130Z,14.20
2022-09-30T10:22:19.984Z,14.20
2022-09-30T10:27:29.306Z,14.40
2022-09-30T10:32:34.426Z,14.40
2022-09-30T10:37:38.620Z,14.50
2022-09-30T10:42:47.174Z,14.70
2022-09-30T10:47:55.227Z,14.90
2022-09-30T10:53:00.420Z,15.10
2022-09-30T10:58:24.615Z,15.20
2022-09-30T11:03:38.802Z,15.40
2022-09-30T11:08:47.726Z,15.50
2022-09-30T11:13:57.470Z,15.70
2022-09-30T11:19:09.602Z,15.80
2022-09-30T11:24:22.709Z,15.90
2022-09-30T11:29:44.441Z,16.10
2022-09-30T11:35:02.535Z,16.30
2022-09-30T11:40:30.572Z,16.40
2022-09-30T11:45:42.416Z,16.50
2022-09-30T11:51:00.878Z,16.60
2022-09-30T11:56:15.622Z,16.60
2022-09-30T12:01:26.492Z,16.60
2022-09-30T12:06:37.334Z,16.80
2022-09-30T12:11:47.825Z,16.80
2022-09-30T12:16:51.816Z,16.90
2022-09-30T12:22:02.761Z,16.90
2022-09-30T12:27:15.078Z,16.80
2022-09-30T12:32:47.849Z,16.80
2022-09-30T12:38:10.277Z,16.90
2022-09-30T12:43:31.274Z,16.90
2022-09-30T12:48:39.496Z,16.90
2022-09-30T12:53:44.599Z,16.90
2022-09-30T12:58:51.251Z,17.00
2022-09-30T13:04:16.031Z,17.00
2022-09-30T13:09:23.310Z,17.10
2022-09-30T13:14:34.955Z,17.10
2022-09-30T13:19:41.503Z,17.20
2022-09-30T13:25:12.508Z,17.30
2022-09-30T13:30:34.630Z,17.40
2022-09-30T13:35:50.124Z,17.50
2022-09-30T13:41:02.297Z,17.50
2022-09-30T13:46:12.197Z,17.60
2022-09-30T13:51:19.671Z,17.70
2022-09-30T13:56:27.808Z,17.70
2022-09-30T14:01:54.625Z,17.80
2022-09-30T14:07:10.528Z,17.80
2022-09-30T14:12:30.940Z,17.80
2022-09-30T14:17:47.877Z,17.80
2022-09-30T14:22:51.453Z,17.80
2022-09-30T14:28:09.994Z,17.90
2022-09-30T14:33:23.701Z,18.00
2022-09-30T14:38:30.236Z,18.10
2022-09-30T14:43:42.538Z,18.20
2022-09-30T14:48:50.727Z,18.40
2022-09-30T14:53:56.069Z,18.50
2022-09-30T14:59:01.468Z,18.60
2022-09-30T15:04:09.113Z,18.40
2022-09-30T15:09:18.851Z,18.30
2022-09-30T15:14:24.871Z,18.20
2022-09-30T15:19:30.109Z,18.10
2022-09-30T15:24:34.505Z,18.10
2022-09-30T15:29:39.438Z,18.00
2022-09-30T15:34:46.116Z,18.00
2022-09-30T15:40:08.111Z,17.80
2022-09-30T15:45:35.735Z,17.70
2022-09-30T15:50:42.131Z,17.60
2022-09-30T15:55:48.289Z,17.50
2022-09-30T16:00:54.259Z,17.40
2022-09-30T16:06:07.964Z,17.40
2022-09-30T16:11:19.117Z,17.30
2022-09-30T16:16:27.442Z,17.20
2022-09-30T16:21:50.851Z,17.10
2022-09-30T16:26:56.218Z,16.90
2022-09-30T16:32:04.690Z,16.80
2022-09-30T16:37:13.818Z,16.70
2022-09-30T16:42:18.653Z,16.60
2022-09-30T16:47:23.635Z,16.50
2022-09-30T16:52:27.151Z,16.40
2022-09-30T16:57:30.728Z,16.30
2022-09-30T17:02:35.462Z,16.20
2022-09-30T17:07:38.969Z,16.10
2022-09-30T17:12:42.525Z,16.00
2022-09-30T17:17:47.985Z,15.90
2022-09-30T17:22:51.759Z,15.80
2022-09-30T17:27:59.869Z,15.70
2022-09-30T17:33:04.827Z,15.60
2022-09-30T17:38:08.798Z,15.50
2022-09-30T17:43:13.161Z,15.40
2022-09-30T17:48:19.542Z,15.30
2022-09-30T17:53:24.161Z,15.20
2022-09-30T17:58:28.574Z,15.10
2022-09-30T18:03:33.467Z,15.10
2022-09-30T18:08:36.872Z,14.90
2022-09-30T18:13:40.561Z,14.90
2022-09-30T18:18:45.292Z,14.80
2022-09-30T18:23:51.278Z,14.70
2022-09-30T18:28:55.886Z,14.60
2022-09-30T18:34:10.777Z,14.50
2022-09-30T18:39:16.564Z,14.50
2022-09-30T18:44:20.577Z,14.40
2022-09-30T18:49:26.866Z,14.40
2022-09-30T18:54:31.541Z,14.30
2022-09-30T18:59:35.093Z,14.20
2022-09-30T19:04:43.264Z,14.10
2022-09-30T19:09:50.515Z,14.10
2022-09-30T19:14:55.561Z,14.10
2022-09-30T19:20:01.553Z,14.00
2022-09-30T19:25:11.966Z,13.90
2022-09-30T19:30:17.320Z,13.90
2022-09-30T19:35:35.067Z,13.90
2022-09-30T19:40:44.142Z,13.80
2022-09-30T19:45:56.012Z,13.70
2022-09-30T19:51:03.445Z,13.60
2022-09-30T19:56:12.635Z,13.60
2022-09-30T20:01:18.327Z,13.60
2022-09-30T20:06:23.662Z,13.60
2022-09-30T20:11:29.928Z,13.60
2022-09-30T20:16:34.050Z,13.70
2022-09-30T20:21:41.782Z,13.60
2022-09-30T20:26:47.119Z,13.70
2022-09-30T20:31:51.712Z,13.60
2022-09-30T20:36:56.812Z,13.60
2022-09-30T20:42:00.199Z,13.60
2022-09-30T20:47:03.830Z,13.60
2022-09-30T20:52:08.783Z,13.50
2022-09-30T20:57:12.218Z,13.50
2022-09-30T21:02:16.101Z,13.40
2022-09-30T21:07:21.173Z,13.40
2022-09-30T21:12:24.502Z,13.40
2022-09-30T21:17:28.069Z,13.40
2022-09-30T21:22:32.797Z,13.40
2022-09-30T21:27:36.212Z,13.40
2022-09-30T21:32:43.214Z,13.30
2022-09-30T21:37:49.748Z,13.30
2022-09-30T21:42:53.119Z,13.30
2022-09-30T21:48:02.176Z,13.30
2022-09-30T21:53:06.909Z,13.30
2022-09-30T21:58:10.319Z,13.30
2022-09-30T22:03:13.979Z,13.20
2022-09-30T22:08:18.812Z,13.30
2022-09-30T22:13:22.489Z,13.20
2022-09-30T22:18:25.960Z,13.20
2022-09-30T22:23:30.930Z,13.20
2022-09-30T22:28:34.331Z,13.20
2022-09-30T22:33:54.963Z,13.20
2022-09-30T22:38:59.726Z,13.20
2022-09-30T22:44:03.345Z,13.20
2022-09-30T22:49:07.657Z,13.20
2022-09-30T22:54:12.589Z,13.20
2022-09-30T22:59:16.618Z,13.20
2022-09-30T23:04:20.513Z,13.10
2022-09-30T23:09:25.840Z,13.10
2022-09-30T23:14:29.479Z,13.10
2022-09-30T23:19:32.835Z,13.00
2022-09-30T23:24:37.774Z,13.00
2022-09-30T23:29:41.139Z,12.90
2022-09-30T23:34:44.513Z,12.90
2022-09-30T23:39:49.417Z,12.90
2022-09-30T23:44:52.794Z,12.80
2022-09-30T23:49:56.500Z,12.80
2022-09-30T23:55:01.397Z,12.70
